Time;durP1;ratioP1;P1;durP2;ratioP2;P2;SDS_P1;SDS_P2;PMS_P1;PMS_P2;Temp;Humidity;BMP_temperature;BMP_pressure;BME280_temperature;BME280_humidity;BME280_pressure;Samples;Min_cycle;Max_cycle;Signal;HPM_P1;HPM_P2
2023/07/31 00:02:52;;;;;;;3.93;2.90;;;21.00;91.80;;;;;;10317619;28;20545;-67
2023/07/31 00:07:53;;;;;;;4.53;2.85;;;21.00;91.90;;;;;;10320891;28;20723;-67
2023/07/31 00:12:54;;;;;;;4.00;2.90;;;21.00;91.90;;;;;;10321458;28;20533;-67
2023/07/31 00:17:55;;;;;;;3.67;2.67;;;21.10;91.90;;;;;;10315525;28;20573;-66
2023/07/31 00:22:55;;;;;;;3.53;2.40;;;21.00;91.90;;;;;;10311493;28;20445;-67
2023/07/31 00:27:56;;;;;;;4.15;2.72;;;21.00;92.00;;;;;;10314843;28;20933;-67
2023/07/31 00:32:57;;;;;;;3.78;2.60;;;21.00;92.00;;;;;;10316022;28;20770;-67
2023/07/31 00:37:58;;;;;;;3.57;2.70;;;20.90;92.00;;;;;;10314874;28;20409;-67
2023/07/31 00:42:58;;;;;;;3.63;2.50;;;21.00;92.10;;;;;;10311633;28;20942;-66
2023/07/31 00:47:59;;;;;;;3.80;2.38;;;20.90;92.10;;;;;;10315193;28;20705;-67
2023/07/31 00:53:00;;;;;;;3.25;2.40;;;20.90;92.20;;;;;;10313809;28;20419;-67
2023/07/31 00:58:00;;;;;;;4.10;2.28;;;20.90;92.20;;;;;;10315444;28;20409;-67
2023/07/31 01:03:01;;;;;;;2.60;2.10;;;20.90;92.20;;;;;;10317069;28;20926;-67
2023/07/31 01:08:44;;;;;;;2.83;2.20;;;20.80;92.20;;;;;;10304177;28;20689;-67
2023/07/31 01:13:45;;;;;;;2.58;2.20;;;20.80;92.20;;;;;;10315138;28;20533;-68
2023/07/31 01:18:46;;;;;;;2.83;2.17;;;20.80;92.20;;;;;;10312257;28;20907;-67
2023/07/31 01:23:46;;;;;;;3.07;2.30;;;20.80;92.20;;;;;;10312747;28;20433;-67
2023/07/31 01:29:15;;;;;;;2.30;2.10;;;20.80;92.30;;;;;;10309513;28;20473;-68
2023/07/31 01:34:23;;;;;;;3.33;2.20;;;20.70;92.20;;;;;;10330607;28;20468;-67
2023/07/31 01:39:25;;;;;;;2.30;1.98;;;20.80;92.30;;;;;;10323351;28;20425;-68
2023/07/31 01:44:26;;;;;;;2.27;1.90;;;20.70;92.30;;;;;;10323106;28;20416;-68
2023/07/31 01:49:27;;;;;;;3.20;2.00;;;20.70;92.30;;;;;;10321141;28;20997;-67
2023/07/31 01:54:27;;;;;;;2.43;2.00;;;20.70;92.30;;;;;;10323705;28;20437;-67
2023/07/31 01:59:28;;;;;;;2.70;2.10;;;20.70;92.40;;;;;;10332325;28;20402;-68
2023/07/31 02:04:29;;;;;;;2.80;2.13;;;20.70;92.40;;;;;;10315044;28;20546;-68
2023/07/31 02:09:30;;;;;;;2.60;2.00;;;20.60;92.40;;;;;;10319008;28;20571;-68
2023/07/31 02:14:30;;;;;;;2.17;1.90;;;20.60;92.40;;;;;;10327866;28;20416;-67
2023/07/31 02:19:31;;;;;;;2.50;2.10;;;20.60;92.50;;;;;;10332154;28;20980;-68
2023/07/31 02:24:31;;;;;;;2.43;2.00;;;20.60;92.50;;;;;;10322209;28;20469;-68
2023/07/31 02:29:32;;;;;;;2.07;1.80;;;20.60;92.50;;;;;;10332893;28;20779;-67
2023/07/31 02:34:33;;;;;;;3.28;2.10;;;20.60;92.50;;;;;;10323844;28;20428;-67
2023/07/31 02:39:33;;;;;;;3.63;2.20;;;20.60;92.60;;;;;;10319791;28;20581;-67
2023/07/31 02:44:34;;;;;;;2.53;2.00;;;20.60;92.60;;;;;;10328183;28;20405;-68
2023/07/31 02:49:34;;;;;;;2.53;2.00;;;20.60;92.60;;;;;;10323855;28;20961;-68
2023/07/31 02:54:35;;;;;;;2.50;2.00;;;20.60;92.70;;;;;;10328819;28;20429;-67
2023/07/31 02:59:36;;;;;;;2.33;2.10;;;20.50;92.70;;;;;;10328176;28;20493;-67
2023/07/31 03:04:36;;;;;;;2.43;2.10;;;20.50;92.70;;;;;;10330184;28;20406;-68
2023/07/31 03:09:37;;;;;;;3.40;2.10;;;20.50;92.80;;;;;;10324667;28;20790;-67
2023/07/31 03:14:37;;;;;;;2.33;2.10;;;20.50;92.80;;;;;;10313960;28;20433;-67
2023/07/31 03:19:38;;;;;;;2.33;1.97;;;20.50;93.10;;;;;;10319167;28;20414;-68
2023/07/31 03:24:39;;;;;;;2.50;2.00;;;20.50;92.90;;;;;;10327031;28;20450;-67
2023/07/31 03:29:39;;;;;;;3.20;2.10;;;20.50;92.90;;;;;;10318771;28;20500;-67
2023/07/31 03:34:40;;;;;;;3.72;2.05;;;20.40;93.00;;;;;;10322177;28;20834;-67
2023/07/31 03:39:40;;;;;;;2.55;2.20;;;20.40;93.00;;;;;;10319536;28;20403;-67
2023/07/31 03:44:41;;;;;;;2.72;2.17;;;20.50;93.00;;;;;;10309282;28;20838;-67
2023/07/31 03:49:42;;;;;;;3.35;2.30;;;20.40;93.10;;;;;;10315251;28;20414;-67
2023/07/31 03:54:44;;;;;;;3.00;2.20;;;20.40;93.10;;;;;;10323083;28;20418;-67
2023/07/31 03:59:45;;;;;;;3.35;2.58;;;20.40;93.10;;;;;;10322455;28;20464;-67
2023/07/31 04:04:45;;;;;;;3.77;2.30;;;20.40;93.20;;;;;;10326814;28;20424;-68
2023/07/31 04:09:46;;;;;;;3.93;2.50;;;20.40;93.20;;;;;;10324450;28;20460;-67
2023/07/31 04:14:46;;;;;;;3.78;2.60;;;20.40;93.30;;;;;;10318694;28;20938;-67
2023/07/31 04:19:47;;;;;;;3.72;2.42;;;20.40;93.30;;;;;;10320495;28;20406;-67
2023/07/31 04:24:48;;;;;;;4.55;2.63;;;20.40;93.30;;;;;;10319807;28;20406;-67
2023/07/31 04:29:48;;;;;;;4.28;2.85;;;20.40;93.40;;;;;;10317968;28;20993;-67
2023/07/31 04:34:49;;;;;;;5.00;3.08;;;20.40;93.50;;;;;;10315060;28;20953;-67
2023/07/31 04:39:49;;;;;;;5.45;3.42;;;20.30;93.50;;;;;;10337976;28;20406;-67
2023/07/31 04:44:50;;;;;;;5.85;3.33;;;20.40;93.60;;;;;;10316923;28;20498;-67
2023/07/31 04:49:51;;;;;;;5.40;3.33;;;20.30;93.60;;;;;;10316910;28;20410;-67
2023/07/31 04:54:51;;;;;;;6.20;3.30;;;20.30;93.60;;;;;;10318728;28;20830;-67
2023/07/31 04:59:52;;;;;;;6.75;3.78;;;20.30;93.70;;;;;;10321115;28;20403;-67
2023/07/31 05:04:53;;;;;;;7.10;4.00;;;20.30;93.60;;;;;;10317682;28;20417;-67
2023/07/31 05:09:53;;;;;;;7.57;3.90;;;20.30;93.70;;;;;;10318091;28;20399;-67
2023/07/31 05:14:54;;;;;;;7.77;3.70;;;20.30;93.60;;;;;;10321211;28;20927;-67
2023/07/31 05:19:54;;;;;;;6.73;3.90;;;20.30;93.60;;;;;;10326068;28;20413;-67
2023/07/31 05:24:55;;;;;;;8.90;3.90;;;20.30;93.70;;;;;;10328039;28;20497;-67
2023/07/31 05:29:56;;;;;;;9.13;4.47;;;20.30;93.60;;;;;;10324385;28;20414;-67
2023/07/31 05:34:56;;;;;;;9.33;4.20;;;20.30;93.70;;;;;;10327455;28;20418;-67
2023/07/31 05:39:57;;;;;;;9.07;4.83;;;20.10;93.60;;;;;;10327256;28;20402;-67
2023/07/31 05:44:57;;;;;;;9.43;4.40;;;20.30;93.70;;;;;;10326460;28;20456;-67
2023/07/31 05:49:58;;;;;;;13.20;4.73;;;20.30;93.70;;;;;;10322412;28;20417;-67
2023/07/31 05:54:59;;;;;;;9.80;4.90;;;20.30;93.80;;;;;;10328972;28;20961;-67
2023/07/31 05:59:59;;;;;;;10.37;5.10;;;20.30;93.80;;;;;;10327063;28;20493;-67
2023/07/31 06:05:01;;;;;;;11.03;5.10;;;20.30;93.80;;;;;;10312729;28;20944;-67
2023/07/31 06:10:05;;;;;;;10.68;5.38;;;20.30;93.80;;;;;;10323822;28;20414;-67
2023/07/31 06:15:17;;;;;;;10.20;5.13;;;20.30;93.90;;;;;;10319328;28;20936;-66
2023/07/31 06:20:18;;;;;;;11.23;5.20;;;20.30;93.90;;;;;;10324401;28;20413;-67
2023/07/31 06:25:19;;;;;;;11.50;5.67;;;20.30;93.90;;;;;;10319796;28;20434;-66
2023/07/31 06:30:20;;;;;;;13.90;5.97;;;20.30;94.20;;;;;;10319165;28;20406;-66
2023/07/31 06:35:20;;;;;;;12.20;5.50;;;20.30;94.10;;;;;;10321458;28;20411;-65
2023/07/31 06:40:22;;;;;;;12.33;5.70;;;20.30;94.20;;;;;;10320205;28;20406;-66
2023/07/31 06:45:22;;;;;;;12.07;5.50;;;20.30;94.20;;;;;;10321076;28;20410;-65
2023/07/31 06:50:23;;;;;;;9.27;5.03;;;20.30;94.20;;;;;;10316933;28;20774;-65
2023/07/31 06:55:24;;;;;;;10.80;5.40;;;20.30;94.20;;;;;;10319650;28;20525;-65
2023/07/31 07:00:25;;;;;;;11.13;5.77;;;20.30;94.20;;;;;;10320073;28;20465;-65
2023/07/31 07:05:25;;;;;;;10.57;5.20;;;20.30;94.20;;;;;;10317863;28;20416;-65
2023/07/31 07:10:26;;;;;;;9.70;5.13;;;20.30;94.20;;;;;;10311477;28;20418;-66
2023/07/31 07:15:27;;;;;;;9.97;5.40;;;20.30;94.30;;;;;;10320459;28;20414;-65
2023/07/31 07:20:27;;;;;;;9.23;5.30;;;20.30;94.30;;;;;;10317755;28;20802;-65
2023/07/31 07:25:28;;;;;;;10.70;5.20;;;19.50;94.20;;;;;;10334161;28;20439;-65
2023/07/31 07:30:28;;;;;;;7.90;5.17;;;20.30;94.30;;;;;;10310154;28;20438;-65
2023/07/31 07:35:29;;;;;;;8.67;4.73;;;20.30;94.30;;;;;;10313621;28;20558;-64
2023/07/31 07:40:30;;;;;;;9.90;5.10;;;20.30;94.30;;;;;;10305685;28;20417;-65
2023/07/31 07:45:30;;;;;;;9.00;4.77;;;20.30;94.30;;;;;;10301723;28;21015;-65
2023/07/31 07:50:32;;;;;;;8.90;5.30;;;20.30;94.40;;;;;;10313149;28;20414;-65
2023/07/31 07:55:32;;;;;;;8.48;5.03;;;20.30;94.40;;;;;;10312708;28;20554;-65
2023/07/31 08:00:33;;;;;;;6.40;4.57;;;20.40;94.50;;;;;;10310118;28;20523;-65
2023/07/31 08:05:34;;;;;;;6.70;4.60;;;20.30;94.50;;;;;;10315165;28;20694;-65
2023/07/31 08:10:34;;;;;;;7.18;4.60;;;20.30;94.50;;;;;;10325118;28;20488;-65
2023/07/31 08:15:35;;;;;;;6.82;4.57;;;20.30;94.50;;;;;;10322939;28;20967;-63
2023/07/31 08:20:36;;;;;;;7.85;4.80;;;20.30;94.50;;;;;;10310880;28;20472;-65
2023/07/31 08:25:37;;;;;;;7.40;4.22;;;20.30;94.70;;;;;;10320049;28;20424;-66
2023/07/31 08:30:37;;;;;;;7.10;4.20;;;20.30;94.80;;;;;;10299394;28;20449;-65
2023/07/31 08:35:38;;;;;;;6.77;4.00;;;20.30;94.70;;;;;;10313075;28;20420;-65
2023/07/31 08:40:39;;;;;;;6.33;3.93;;;20.30;94.70;;;;;;10308039;28;20386;-65
2023/07/31 08:45:42;;;;;;;9.03;4.00;;;20.30;94.70;;;;;;10308156;28;20406;-64
2023/07/31 08:50:43;;;;;;;6.22;3.85;;;20.30;94.70;;;;;;10311298;28;20418;-65
2023/07/31 08:55:44;;;;;;;7.10;3.93;;;20.30;94.70;;;;;;10308798;28;20439;-65
2023/07/31 09:00:46;;;;;;;5.82;3.40;;;20.30;94.80;;;;;;10309017;28;20413;-65
2023/07/31 09:05:47;;;;;;;5.33;3.80;;;20.30;94.90;;;;;;10309529;28;20412;-65
2023/07/31 09:10:51;;;;;;;5.50;3.50;;;20.30;94.80;;;;;;10311049;28;20416;-65
2023/07/31 09:15:52;;;;;;;6.55;3.78;;;20.30;95.00;;;;;;10317125;28;20794;-67
2023/07/31 09:21:05;;;;;;;6.23;3.73;;;20.30;95.10;;;;;;10308988;28;20521;-67
2023/07/31 09:26:06;;;;;;;5.17;3.30;;;20.30;95.10;;;;;;10301707;28;20416;-70
2023/07/31 09:31:06;;;;;;;5.87;3.20;;;20.40;95.10;;;;;;10308751;28;20477;-66
2023/07/31 09:36:07;;;;;;;5.07;3.33;;;20.40;95.20;;;;;;10299761;28;20434;-65
2023/07/31 09:41:08;;;;;;;6.80;3.60;;;20.40;95.40;;;;;;10301894;28;20412;-66
2023/07/31 09:46:13;;;;;;;4.97;3.05;;;20.40;95.50;;;;;;10305405;28;20896;-65
2023/07/31 09:51:14;;;;;;;5.32;3.05;;;20.40;95.40;;;;;;10315130;28;20539;-66
2023/07/31 09:56:16;;;;;;;4.50;2.90;;;20.40;95.50;;;;;;10308281;28;20430;-65
2023/07/31 10:01:17;;;;;;;5.15;3.13;;;20.40;95.40;;;;;;10306758;28;20820;-65
2023/07/31 10:06:19;;;;;;;4.03;2.77;;;20.40;95.30;;;;;;10311247;28;20461;-65
2023/07/31 10:11:21;;;;;;;4.77;2.70;;;20.50;95.40;;;;;;10319690;28;20414;-65
2023/07/31 10:16:22;;;;;;;4.47;2.60;;;20.40;95.70;;;;;;10315208;28;20534;-65
2023/07/31 10:21:23;;;;;;;4.10;2.83;;;20.50;95.60;;;;;;10318379;28;20410;-65
2023/07/31 10:26:25;;;;;;;3.95;2.58;;;20.50;95.60;;;;;;10313413;28;20428;-68
2023/07/31 10:31:28;;;;;;;3.80;2.80;;;20.50;95.40;;;;;;10308814;28;20422;-67
2023/07/31 10:36:29;;;;;;;4.87;2.83;;;20.50;95.40;;;;;;10316659;28;20414;-66
2023/07/31 10:41:32;;;;;;;4.00;3.10;;;20.60;95.40;;;;;;10311922;28;20418;-67
2023/07/31 10:46:33;;;;;;;4.90;2.70;;;20.60;95.50;;;;;;10314925;28;20412;-68
2023/07/31 10:51:35;;;;;;;4.20;2.70;;;20.60;95.50;;;;;;10310978;28;20417;-67
2023/07/31 10:56:38;;;;;;;4.07;2.57;;;20.60;95.50;;;;;;10317283;28;20419;-66
2023/07/31 11:01:52;;;;;;;3.40;2.58;;;20.60;95.50;;;;;;10314684;28;20529;-66
2023/07/31 11:07:02;;;;;;;3.53;2.60;;;20.60;95.50;;;;;;10318100;28;20520;-66
2023/07/31 11:12:03;;;;;;;3.33;2.70;;;20.60;95.50;;;;;;10316144;28;20406;-66
2023/07/31 11:17:07;;;;;;;3.07;2.60;;;20.60;95.60;;;;;;10308681;28;20548;-67
2023/07/31 11:22:09;;;;;;;3.42;2.50;;;20.60;95.60;;;;;;10304686;28;20493;-67
2023/07/31 11:27:09;;;;;;;2.90;2.50;;;20.70;95.70;;;;;;10308378;28;20406;-67
2023/07/31 11:32:17;;;;;;;4.33;2.80;;;20.80;95.90;;;;;;10309764;28;20424;-65
2023/07/31 11:37:18;;;;;;;3.00;2.50;;;20.80;95.90;;;;;;10306109;28;20509;-65
2023/07/31 11:42:18;;;;;;;4.77;2.23;;;20.80;95.90;;;;;;10312603;28;20420;-65
2023/07/31 11:47:19;;;;;;;2.97;2.20;;;20.90;95.80;;;;;;10313768;28;20430;-67
2023/07/31 11:52:20;;;;;;;3.55;2.38;;;21.00;95.90;;;;;;10315678;28;20422;-70
2023/07/31 11:57:22;;;;;;;5.28;2.20;;;21.00;95.80;;;;;;10310560;28;20410;-70
2023/07/31 12:02:23;;;;;;;4.55;2.17;;;21.00;95.90;;;;;;10322868;28;20410;-66
2023/07/31 12:07:24;;;;;;;5.20;2.20;;;21.00;96.20;;;;;;10314658;28;20406;-66
2023/07/31 12:12:26;;;;;;;4.75;2.40;;;21.10;97.50;;;;;;10311216;28;20446;-66
2023/07/31 12:17:26;;;;;;;5.00;2.20;;;21.10;97.20;;;;;;10313103;28;20433;-66
2023/07/31 12:22:27;;;;;;;4.37;1.93;;;21.20;97.00;;;;;;10307537;28;20406;-66
2023/07/31 12:27:33;;;;;;;3.77;1.87;;;21.20;97.20;;;;;;10306313;28;20987;-66
2023/07/31 12:32:34;;;;;;;3.63;2.03;;;21.30;97.30;;;;;;10305721;28;20494;-66
2023/07/31 12:37:34;;;;;;;5.53;1.60;;;21.30;97.10;;;;;;10322326;28;20422;-68
2023/07/31 12:42:35;;;;;;;5.97;1.75;;;21.40;98.00;;;;;;10319796;28;20406;-68
2023/07/31 12:47:35;;;;;;;9.07;2.10;;;21.40;99.10;;;;;;10317095;28;21330;-68
2023/07/31 12:52:36;;;;;;;6.00;1.83;;;21.60;99.50;;;;;;10305049;28;20508;-67
2023/07/31 12:57:37;;;;;;;5.90;2.00;;;21.60;99.90;;;;;;10310440;28;20981;-65
2023/07/31 13:02:37;;;;;;;5.90;2.30;;;21.60;99.40;;;;;;10323239;28;20398;-66
2023/07/31 13:07:38;;;;;;;5.30;1.87;;;21.70;99.60;;;;;;10318299;28;20421;-66
2023/07/31 13:12:39;;;;;;;4.90;1.77;;;21.80;99.90;;;;;;10315402;28;21024;-65
2023/07/31 13:17:40;;;;;;;4.53;2.00;;;21.80;99.50;;;;;;10307150;28;20802;-66
2023/07/31 13:22:41;;;;;;;5.80;2.30;;;21.80;99.40;;;;;;10302265;28;20418;-66
2023/07/31 13:27:42;;;;;;;6.20;2.08;;;21.70;99.70;;;;;;10313350;28;20410;-65
2023/07/31 13:32:42;;;;;;;5.70;2.47;;;21.70;99.90;;;;;;10309409;28;20927;-66
2023/07/31 13:37:43;;;;;;;6.33;2.43;;;21.50;99.80;;;;;;10319923;28;20424;-66
2023/07/31 13:42:44;;;;;;;5.82;2.50;;;21.50;99.80;;;;;;10322208;28;20921;-66
2023/07/31 13:47:44;;;;;;;4.93;2.15;;;21.40;99.80;;;;;;10324795;28;20698;-66
2023/07/31 13:52:45;;;;;;;6.37;2.60;;;21.40;99.70;;;;;;10326214;28;20893;-66
2023/07/31 13:57:45;;;;;;;6.33;2.47;;;21.60;99.70;;;;;;10320101;28;20445;-66
2023/07/31 14:02:46;;;;;;;5.73;2.40;;;21.50;99.60;;;;;;10316058;28;20815;-66
2023/07/31 14:07:47;;;;;;;6.00;2.50;;;21.50;99.40;;;;;;10329919;28;20941;-66
2023/07/31 14:12:47;;;;;;;4.63;2.23;;;21.50;99.40;;;;;;10314354;28;20468;-68
2023/07/31 14:17:48;;;;;;;6.00;2.77;;;21.50;99.40;;;;;;10323171;28;21011;-66
2023/07/31 14:22:49;;;;;;;6.67;2.50;;;21.50;99.40;;;;;;10323853;28;20406;-68
2023/07/31 14:27:50;;;;;;;6.03;2.40;;;21.40;99.30;;;;;;10317375;28;20420;-66
2023/07/31 14:32:50;;;;;;;3.90;2.10;;;21.50;99.60;;;;;;10315667;28;20434;-65
2023/07/31 14:37:51;;;;;;;5.37;2.60;;;21.50;99.50;;;;;;10322323;28;20418;-69
2023/07/31 14:42:51;;;;;;;5.07;2.50;;;21.50;99.40;;;;;;10323283;28;20410;-67
2023/07/31 14:47:52;;;;;;;4.30;2.33;;;21.50;99.50;;;;;;10319681;28;20429;-67
2023/07/31 14:52:53;;;;;;;5.80;2.80;;;21.50;99.50;;;;;;10318415;28;20442;-67
2023/07/31 14:57:53;;;;;;;5.32;2.50;;;21.30;99.50;;;;;;10322096;28;20417;-67
2023/07/31 15:02:54;;;;;;;4.35;2.70;;;21.40;99.50;;;;;;10324429;28;20849;-67
2023/07/31 15:07:54;;;;;;;5.27;3.10;;;21.40;99.40;;;;;;10319304;28;20509;-67
2023/07/31 15:12:55;;;;;;;4.47;2.80;;;21.40;99.50;;;;;;10320317;28;20399;-66
2023/07/31 15:17:56;;;;;;;4.87;2.90;;;21.40;99.60;;;;;;10323698;28;20433;-69
2023/07/31 15:22:57;;;;;;;4.90;2.85;;;21.30;99.50;;;;;;10319626;28;20406;-66
2023/07/31 15:27:57;;;;;;;4.93;3.10;;;21.30;99.70;;;;;;10321260;28;20914;-66
2023/07/31 15:32:59;;;;;;;4.40;3.37;;;21.30;99.90;;;;;;10318184;28;20430;-65
2023/07/31 15:37:59;;;;;;;5.22;3.15;;;21.30;99.90;;;;;;10315425;28;20454;-64
2023/07/31 15:43:02;;;;;;;5.50;3.40;;;21.30;99.90;;;;;;10318855;28;20841;-64
2023/07/31 15:48:03;;;;;;;4.43;3.10;;;21.30;99.90;;;;;;10306381;28;20422;-64
2023/07/31 15:53:03;;;;;;;5.07;3.25;;;21.30;99.90;;;;;;10317905;28;20418;-65
2023/07/31 15:58:04;;;;;;;4.85;3.30;;;21.30;99.90;;;;;;10314170;28;20413;-63
2023/07/31 16:03:04;;;;;;;4.57;3.20;;;21.20;99.90;;;;;;10316629;28;20431;-65
2023/07/31 16:08:05;;;;;;;6.37;3.90;;;21.30;99.90;;;;;;10314485;28;20475;-64
2023/07/31 16:13:06;;;;;;;4.87;3.50;;;21.30;99.90;;;;;;10318374;28;21191;-65
2023/07/31 16:18:06;;;;;;;5.63;4.03;;;21.30;99.90;;;;;;10317187;28;20469;-65
2023/07/31 16:23:07;;;;;;;5.93;4.00;;;21.30;99.90;;;;;;10313058;28;20493;-63
2023/07/31 16:28:08;;;;;;;4.13;3.30;;;21.30;99.90;;;;;;10313135;28;20506;-65
2023/07/31 16:33:08;;;;;;;4.13;2.93;;;21.30;99.90;;;;;;10316643;28;20480;-63
2023/07/31 16:38:09;;;;;;;4.17;3.30;;;21.20;99.90;;;;;;10305986;28;20408;-66
2023/07/31 16:43:10;;;;;;;3.92;3.00;;;21.20;99.90;;;;;;10314741;28;20414;-65
2023/07/31 16:48:10;;;;;;;4.85;4.13;;;21.30;99.80;;;;;;10303537;28;20409;-65
2023/07/31 16:53:11;;;;;;;4.30;3.00;;;21.30;99.70;;;;;;10310525;28;20436;-65
2023/07/31 16:58:12;;;;;;;4.55;3.13;;;21.30;99.70;;;;;;10311783;28;20414;-65
2023/07/31 17:03:12;;;;;;;3.70;2.88;;;21.30;99.50;;;;;;10317033;28;20410;-64
2023/07/31 17:08:14;;;;;;;3.95;3.08;;;21.30;99.40;;;;;;10313831;28;20414;-64
2023/07/31 17:13:15;;;;;;;5.10;3.53;;;21.30;99.40;;;;;;10319197;28;20441;-65
2023/07/31 17:18:15;;;;;;;4.32;3.25;;;21.20;99.40;;;;;;10319358;28;20429;-66
2023/07/31 17:23:16;;;;;;;5.07;3.60;;;21.20;99.40;;;;;;10320212;28;20402;-66
2023/07/31 17:28:16;;;;;;;5.77;4.40;;;21.30;99.40;;;;;;10319281;28;20489;-64
2023/07/31 17:33:17;;;;;;;4.20;2.83;;;21.20;99.40;;;;;;10316869;28;20394;-68
2023/07/31 17:38:18;;;;;;;4.53;3.20;;;21.20;99.60;;;;;;10316411;28;20406;-66
2023/07/31 17:43:18;;;;;;;4.20;2.87;;;21.30;99.40;;;;;;10315267;28;20481;-66
2023/07/31 17:48:19;;;;;;;4.93;3.00;;;21.20;99.50;;;;;;10319155;28;20500;-65
2023/07/31 17:53:20;;;;;;;4.10;2.70;;;21.20;99.40;;;;;;10310372;28;20511;-64
2023/07/31 17:58:21;;;;;;;3.37;2.67;;;21.20;99.40;;;;;;10316457;28;20989;-66
2023/07/31 18:03:21;;;;;;;4.63;2.93;;;21.20;99.60;;;;;;10314911;28;20489;-64
2023/07/31 18:08:25;;;;;;;4.63;2.42;;;21.20;99.50;;;;;;10327609;28;20820;-71
2023/07/31 18:13:25;;;;;;;3.60;2.10;;;21.20;99.70;;;;;;10311002;28;20476;-69
2023/07/31 18:18:26;;;;;;;5.25;2.03;;;21.10;99.90;;;;;;10313492;28;20410;-69
2023/07/31 18:23:27;;;;;;;3.35;1.90;;;21.10;99.90;;;;;;10320698;28;20906;-68
2023/07/31 18:28:27;;;;;;;3.88;2.10;;;21.20;99.80;;;;;;10320933;28;20477;-69
2023/07/31 18:33:28;;;;;;;4.55;2.28;;;21.20;99.70;;;;;;10315556;28;20404;-69
2023/07/31 18:38:31;;;;;;;3.08;2.17;;;21.10;99.60;;;;;;10329739;28;20473;-69
2023/07/31 18:43:33;;;;;;;3.90;2.10;;;21.20;99.50;;;;;;10315117;28;20493;-69
2023/07/31 18:48:34;;;;;;;3.47;2.22;;;21.20;99.40;;;;;;10315441;28;20453;-69
2023/07/31 18:53:34;;;;;;;3.70;2.00;;;21.10;99.30;;;;;;10319630;28;20506;-69
2023/07/31 18:58:35;;;;;;;4.33;2.00;;;21.20;99.20;;;;;;10316976;28;20416;-69
2023/07/31 19:03:37;;;;;;;2.58;1.90;;;21.10;99.20;;;;;;10310745;28;20470;-69
2023/07/31 19:08:37;;;;;;;2.78;2.28;;;21.10;99.10;;;;;;10316260;28;20414;-69
2023/07/31 19:13:40;;;;;;;3.87;2.17;;;21.10;99.00;;;;;;10309335;28;20752;-69
2023/07/31 19:18:40;;;;;;;2.00;1.80;;;21.10;99.00;;;;;;10316282;28;20414;-70
2023/07/31 19:23:41;;;;;;;3.20;2.10;;;21.00;98.90;;;;;;10316855;28;20410;-70
2023/07/31 19:28:41;;;;;;;3.73;2.20;;;21.10;98.90;;;;;;10316924;28;20930;-70
2023/07/31 19:33:42;;;;;;;3.10;2.00;;;21.00;98.90;;;;;;10316627;28;20418;-69
2023/07/31 19:38:43;;;;;;;2.43;2.00;;;21.00;98.90;;;;;;10316681;28;20468;-69
2023/07/31 19:43:43;;;;;;;2.97;2.00;;;21.00;98.90;;;;;;10314281;28;20399;-69
2023/07/31 19:48:44;;;;;;;2.40;2.20;;;21.00;98.80;;;;;;10309500;28;20410;-69
2023/07/31 19:53:44;;;;;;;3.92;2.40;;;21.00;98.80;;;;;;10316266;28;20418;-69
2023/07/31 19:58:45;;;;;;;2.42;2.00;;;21.00;98.80;;;;;;10314185;28;20430;-69
2023/07/31 20:03:46;;;;;;;2.53;2.30;;;21.00;98.80;;;;;;10310523;28;20410;-69
2023/07/31 20:08:46;;;;;;;3.90;2.20;;;20.90;98.70;;;;;;10312671;28;20406;-70
2023/07/31 20:13:47;;;;;;;2.67;2.40;;;20.90;98.70;;;;;;10311305;28;20426;-69
2023/07/31 20:18:48;;;;;;;4.30;2.70;;;20.90;98.70;;;;;;10312597;28;20414;-69
2023/07/31 20:23:49;;;;;;;4.38;2.42;;;20.90;98.70;;;;;;10312129;28;20406;-69
2023/07/31 20:28:49;;;;;;;3.15;2.33;;;20.90;98.60;;;;;;10309823;28;20418;-70
2023/07/31 20:33:50;;;;;;;3.78;2.75;;;20.90;98.90;;;;;;10308325;28;20423;-69
2023/07/31 20:38:51;;;;;;;3.55;2.80;;;20.90;98.70;;;;;;10311770;28;20503;-68
2023/07/31 20:43:51;;;;;;;4.18;2.90;;;20.90;98.60;;;;;;10305103;28;20419;-68
2023/07/31 20:48:52;;;;;;;4.40;3.00;;;20.90;98.60;;;;;;10309496;28;20401;-69
2023/07/31 20:53:53;;;;;;;3.13;2.50;;;20.90;98.60;;;;;;10312969;28;20911;-69
2023/07/31 20:58:53;;;;;;;3.05;2.70;;;20.80;98.60;;;;;;10307229;28;20429;-68
2023/07/31 21:03:54;;;;;;;4.38;3.00;;;20.80;98.60;;;;;;10307012;28;20832;-69
2023/07/31 21:08:54;;;;;;;4.25;2.90;;;20.80;98.50;;;;;;10307573;28;20501;-69
2023/07/31 21:13:57;;;;;;;4.13;2.90;;;20.80;98.50;;;;;;10312301;28;20414;-69
2023/07/31 21:18:58;;;;;;;6.13;2.90;;;20.80;98.40;;;;;;10305366;28;20414;-69
2023/07/31 21:23:58;;;;;;;4.30;2.60;;;20.70;98.30;;;;;;10310421;28;20903;-69
2023/07/31 21:29:01;;;;;;;3.70;2.70;;;20.70;98.30;;;;;;10311516;28;20424;-68
2023/07/31 21:34:02;;;;;;;3.70;2.78;;;20.70;98.30;;;;;;10306087;28;20442;-68
2023/07/31 21:39:02;;;;;;;3.73;2.93;;;20.70;98.30;;;;;;10297439;28;20499;-67
2023/07/31 21:44:03;;;;;;;4.50;3.00;;;20.70;98.20;;;;;;10309907;28;20404;-68
2023/07/31 21:49:05;;;;;;;3.73;2.93;;;20.70;98.20;;;;;;10312423;28;20414;-68
2023/07/31 21:54:09;;;;;;;4.30;2.87;;;20.70;98.20;;;;;;10306165;28;20449;-68
2023/07/31 21:59:10;;;;;;;3.40;2.93;;;20.70;98.20;;;;;;10318517;28;20402;-68
2023/07/31 22:04:10;;;;;;;4.27;3.00;;;20.70;98.10;;;;;;10328387;28;20429;-68
2023/07/31 22:09:11;;;;;;;4.13;2.80;;;20.70;98.10;;;;;;10317801;28;20414;-68
2023/07/31 22:14:11;;;;;;;4.33;3.00;;;20.70;98.10;;;;;;10324670;28;20521;-68
2023/07/31 22:19:12;;;;;;;4.53;3.13;;;20.60;98.10;;;;;;10321007;28;20784;-68
2023/07/31 22:24:13;;;;;;;4.45;3.35;;;20.60;98.10;;;;;;10317922;28;20410;-67
2023/07/31 22:29:14;;;;;;;4.27;3.10;;;20.70;98.10;;;;;;10327411;28;20518;-67
2023/07/31 22:34:15;;;;;;;4.70;3.10;;;20.60;98.10;;;;;;10330299;28;20418;-68
2023/07/31 22:39:16;;;;;;;4.97;3.35;;;20.60;98.10;;;;;;10316195;28;20468;-68
2023/07/31 22:44:16;;;;;;;4.60;3.13;;;20.60;98.00;;;;;;10328195;28;20779;-68
2023/07/31 22:49:17;;;;;;;4.60;3.55;;;20.60;98.00;;;;;;10321376;28;20410;-68
2023/07/31 22:54:17;;;;;;;5.50;3.40;;;20.60;98.00;;;;;;10310909;28;20674;-68
2023/07/31 22:59:18;;;;;;;5.10;3.67;;;20.60;98.00;;;;;;10325151;28;20399;-68
2023/07/31 23:04:20;;;;;;;4.20;3.50;;;20.50;97.90;;;;;;10321726;28;20410;-68
2023/07/31 23:09:20;;;;;;;5.22;3.85;;;20.50;97.90;;;;;;10317327;28;20469;-68
2023/07/31 23:14:21;;;;;;;5.33;3.53;;;20.50;97.90;;;;;;10317883;28;20492;-68
2023/07/31 23:19:23;;;;;;;4.97;3.63;;;20.60;97.90;;;;;;10321784;28;20465;-68
2023/07/31 23:24:24;;;;;;;4.32;3.80;;;20.50;97.90;;;;;;10330154;28;20493;-68
2023/07/31 23:29:24;;;;;;;5.03;3.70;;;20.50;97.90;;;;;;10317541;28;20938;-67
2023/07/31 23:34:25;;;;;;;4.23;3.77;;;20.50;97.90;;;;;;10314263;28;20422;-68
2023/07/31 23:39:25;;;;;;;5.03;3.73;;;20.50;97.90;;;;;;10315599;28;20406;-68
2023/07/31 23:44:27;;;;;;;5.23;3.73;;;20.50;97.90;;;;;;10323144;28;20437;-68
2023/07/31 23:49:27;;;;;;;5.35;3.80;;;20.50;97.90;;;;;;10325024;28;20721;-68
2023/07/31 23:54:28;;;;;;;5.32;4.22;;;20.40;97.80;;;;;;10313098;28;20488;-68
2023/07/31 23:59:29;;;;;;;5.85;4.18;;;20.40;97.90;;;;;;10326034;28;20426;-69
